Time;durP1;ratioP1;P1;durP2;ratioP2;P2;SDS_P1;SDS_P2;PMS_P1;PMS_P2;Temp;Humidity;BMP_temperature;BMP_pressure;BME280_temperature;BME280_humidity;BME280_pressure;Samples;Min_cycle;Max_cycle;Signal;HPM_P1;HPM_P2
2023/08/01 00:01:38;;;;;;;8.85;3.10;;;;;;;;;;5019495;28;25065;-73
2023/08/01 00:04:04;;;;;;;12.60;3.15;;;;;;;;;;5006671;28;25060;-75
2023/08/01 00:06:30;;;;;;;19.48;4.45;;;;;;;;;;5008015;28;25058;-75
2023/08/01 00:08:56;;;;;;;8.35;3.15;;;;;;;;;;5004635;28;25072;-74
2023/08/01 00:11:22;;;;;;;17.35;3.28;;;;;;;;;;5007104;28;25110;-74
2023/08/01 00:13:48;;;;;;;12.25;3.13;;;;;;;;;;5008534;28;25075;-74
2023/08/01 00:16:14;;;;;;;17.27;3.55;;;;;;;;;;5002411;28;25075;-75
2023/08/01 00:18:40;;;;;;;11.50;3.38;;;;;;;;;;5008407;28;25065;-74
2023/08/01 00:21:09;;;;;;;22.30;4.22;;;;;;;;;;5004536;28;25093;-74
2023/08/01 00:23:35;;;;;;;10.93;3.75;;;;;;;;;;4997965;28;25048;-75
2023/08/01 00:26:01;;;;;;;11.43;3.55;;;;;;;;;;4992119;28;25066;-73
2023/08/01 00:28:27;;;;;;;14.02;3.55;;;;;;;;;;5007365;28;25058;-74
2023/08/01 00:31:09;;;;;;;12.50;3.03;;;;;;;;;;4996264;28;25113;-73
2023/08/01 00:33:35;;;;;;;9.80;3.50;;;;;;;;;;4994739;28;25067;-72
2023/08/01 00:36:01;;;;;;;12.65;3.88;;;;;;;;;;4996280;28;25107;-76
2023/08/01 00:38:27;;;;;;;8.50;3.58;;;;;;;;;;5004935;28;25114;-73
2023/08/01 00:40:53;;;;;;;15.88;3.58;;;;;;;;;;4992571;28;25061;-76
2023/08/01 00:43:19;;;;;;;12.82;3.88;;;;;;;;;;5001807;28;25079;-75
2023/08/01 00:45:46;;;;;;;10.15;3.50;;;;;;;;;;4991353;28;25061;-75
2023/08/01 00:48:12;;;;;;;13.48;3.53;;;;;;;;;;4998641;28;25090;-74
2023/08/01 00:50:39;;;;;;;15.63;3.63;;;;;;;;;;4998408;28;25059;-74
2023/08/01 00:53:05;;;;;;;13.52;3.42;;;;;;;;;;4998345;28;25066;-73
2023/08/01 00:55:33;;;;;;;11.57;3.58;;;;;;;;;;4997101;28;25068;-74
2023/08/01 00:57:59;;;;;;;9.38;3.15;;;;;;;;;;4992766;28;25181;-76
2023/08/01 01:00:25;;;;;;;9.88;3.20;;;;;;;;;;4992591;28;25015;-73
2023/08/01 01:02:51;;;;;;;10.13;3.47;;;;;;;;;;4998213;28;25069;-74
2023/08/01 01:05:17;;;;;;;9.75;2.95;;;;;;;;;;5002348;28;25047;-75
2023/08/01 01:07:44;;;;;;;12.70;3.25;;;;;;;;;;5019094;28;25103;-75
2023/08/01 01:10:10;;;;;;;14.13;2.92;;;;;;;;;;5014637;28;25072;-75
2023/08/01 01:12:36;;;;;;;14.38;4.00;;;;;;;;;;5014619;28;25069;-73
2023/08/01 01:15:02;;;;;;;14.25;3.42;;;;;;;;;;5007082;28;25059;-72
2023/08/01 01:17:28;;;;;;;10.48;3.72;;;;;;;;;;4990126;28;25085;-74
2023/08/01 01:19:54;;;;;;;12.82;4.38;;;;;;;;;;4998763;28;25074;-75
2023/08/01 01:22:20;;;;;;;10.60;3.50;;;;;;;;;;4997854;28;25054;-73
2023/08/01 01:24:47;;;;;;;12.07;2.95;;;;;;;;;;5008225;28;25076;-73
2023/08/01 01:27:13;;;;;;;9.48;3.40;;;;;;;;;;4994219;28;25122;-73
2023/08/01 01:29:39;;;;;;;12.82;3.88;;;;;;;;;;5004551;28;25149;-76
2023/08/01 01:32:06;;;;;;;11.68;4.18;;;;;;;;;;5000074;28;25060;-74
2023/08/01 01:34:32;;;;;;;10.15;3.08;;;;;;;;;;4997491;28;25163;-74
2023/08/01 01:37:03;;;;;;;14.25;3.70;;;;;;;;;;4998634;28;25085;-73
2023/08/01 01:39:29;;;;;;;8.57;3.90;;;;;;;;;;5002069;28;25060;-75
2023/08/01 01:41:55;;;;;;;12.05;3.85;;;;;;;;;;5005294;28;25067;-75
2023/08/01 01:44:21;;;;;;;14.55;4.22;;;;;;;;;;5017227;28;25055;-74
2023/08/01 01:46:49;;;;;;;11.50;4.18;;;;;;;;;;4992746;28;25078;-74
2023/08/01 01:49:15;;;;;;;12.40;4.25;;;;;;;;;;5009255;28;25097;-74
2023/08/01 01:51:41;;;;;;;8.05;3.08;;;;;;;;;;4996987;28;25101;-73
2023/08/01 01:54:07;;;;;;;19.52;4.55;;;;;;;;;;4993783;28;25070;-74
2023/08/01 01:56:35;;;;;;;7.60;3.30;;;;;;;;;;4988531;28;25047;-73
2023/08/01 01:59:01;;;;;;;9.77;3.90;;;;;;;;;;5005933;28;25086;-74
2023/08/01 02:01:27;;;;;;;12.48;3.20;;;;;;;;;;4998858;28;25072;-77
2023/08/01 02:03:53;;;;;;;8.43;3.28;;;;;;;;;;5003060;28;25082;-74
2023/08/01 02:06:19;;;;;;;11.18;3.63;;;;;;;;;;4990301;28;25076;-74
2023/08/01 02:08:46;;;;;;;5.28;2.85;;;;;;;;;;5001713;28;25081;-75
2023/08/01 02:11:12;;;;;;;10.60;3.50;;;;;;;;;;5001808;28;25047;-73
2023/08/01 02:13:38;;;;;;;10.70;3.60;;;;;;;;;;5001748;28;25056;-74
2023/08/01 02:16:04;;;;;;;9.82;3.70;;;;;;;;;;5007109;28;25051;-75
2023/08/01 02:18:30;;;;;;;8.13;3.58;;;;;;;;;;5002413;28;25147;-75
2023/08/01 02:20:56;;;;;;;13.90;3.40;;;;;;;;;;5001229;28;25061;-74
2023/08/01 02:23:22;;;;;;;12.77;3.47;;;;;;;;;;4997844;28;25136;-74
2023/08/01 02:25:48;;;;;;;8.07;3.60;;;;;;;;;;4995368;28;25047;-74
2023/08/01 02:28:14;;;;;;;8.75;3.40;;;;;;;;;;5002819;28;25075;-74
2023/08/01 02:30:40;;;;;;;10.38;3.33;;;;;;;;;;4998646;28;25049;-73
2023/08/01 02:33:06;;;;;;;13.65;3.90;;;;;;;;;;4999105;28;25057;-74
2023/08/01 02:35:33;;;;;;;9.20;3.88;;;;;;;;;;4991407;28;25116;-73
2023/08/01 02:37:59;;;;;;;10.80;3.72;;;;;;;;;;4997920;28;25071;-75
2023/08/01 02:40:26;;;;;;;10.07;3.50;;;;;;;;;;5002252;28;25155;-73
2023/08/01 02:42:52;;;;;;;9.68;3.60;;;;;;;;;;5011398;28;25056;-76
2023/08/01 02:45:18;;;;;;;9.13;3.65;;;;;;;;;;4980778;28;25164;-74
2023/08/01 02:47:44;;;;;;;9.00;3.95;;;;;;;;;;5003470;28;25172;-72
2023/08/01 02:50:10;;;;;;;14.85;4.25;;;;;;;;;;5000336;28;25087;-74
2023/08/01 02:52:36;;;;;;;12.57;3.65;;;;;;;;;;4996292;28;25065;-74
2023/08/01 02:55:02;;;;;;;10.65;3.30;;;;;;;;;;4996160;28;25063;-74
2023/08/01 02:57:28;;;;;;;17.80;4.13;;;;;;;;;;4991167;28;25064;-74
2023/08/01 02:59:54;;;;;;;8.05;4.20;;;;;;;;;;4999938;28;25142;-74
2023/08/01 03:02:20;;;;;;;11.82;3.88;;;;;;;;;;4995658;28;25086;-74
2023/08/01 03:04:47;;;;;;;14.02;4.38;;;;;;;;;;4996183;28;25063;-73
2023/08/01 03:07:13;;;;;;;17.05;4.47;;;;;;;;;;4992324;28;25069;-74
2023/08/01 03:09:39;;;;;;;10.38;3.90;;;;;;;;;;5005967;28;25069;-75
2023/08/01 03:12:05;;;;;;;9.73;4.13;;;;;;;;;;4990993;28;25133;-74
2023/08/01 03:14:32;;;;;;;14.38;4.13;;;;;;;;;;4992879;28;25047;-74
2023/08/01 03:16:58;;;;;;;17.75;5.05;;;;;;;;;;4998244;28;25107;-74
2023/08/01 03:19:24;;;;;;;13.15;4.93;;;;;;;;;;4998175;28;25088;-75
2023/08/01 03:21:50;;;;;;;17.25;4.85;;;;;;;;;;4989703;28;25068;-74
2023/08/01 03:24:16;;;;;;;14.30;4.70;;;;;;;;;;5001217;28;25169;-74
2023/08/01 03:26:42;;;;;;;11.18;4.43;;;;;;;;;;5002930;28;25158;-76
2023/08/01 03:29:08;;;;;;;13.00;4.75;;;;;;;;;;4989748;28;25039;-74
2023/08/01 03:31:34;;;;;;;12.23;4.25;;;;;;;;;;4987495;28;25092;-74
2023/08/01 03:34:00;;;;;;;10.88;4.25;;;;;;;;;;5017106;28;25052;-74
2023/08/01 03:36:26;;;;;;;14.82;4.72;;;;;;;;;;4994829;28;25152;-75
2023/08/01 03:38:52;;;;;;;13.35;4.80;;;;;;;;;;4997763;28;25132;-74
2023/08/01 03:41:18;;;;;;;16.20;4.68;;;;;;;;;;5011098;28;25084;-75
2023/08/01 03:43:44;;;;;;;11.95;5.03;;;;;;;;;;4988180;28;25155;-76
2023/08/01 03:46:10;;;;;;;21.52;5.40;;;;;;;;;;5006323;28;25112;-75
2023/08/01 03:48:36;;;;;;;12.85;4.40;;;;;;;;;;4994643;28;25098;-73
2023/08/01 03:51:03;;;;;;;13.20;5.78;;;;;;;;;;5004788;28;25072;-74
2023/08/01 03:53:29;;;;;;;13.88;4.82;;;;;;;;;;5005101;28;25140;-74
2023/08/01 03:55:56;;;;;;;11.25;4.75;;;;;;;;;;5001841;28;25074;-75
2023/08/01 03:58:22;;;;;;;12.45;4.93;;;;;;;;;;5002477;28;25058;-75
2023/08/01 04:00:48;;;;;;;11.55;5.38;;;;;;;;;;5007804;28;25063;-73
2023/08/01 04:03:14;;;;;;;13.50;5.57;;;;;;;;;;5015987;28;25095;-75
2023/08/01 04:05:40;;;;;;;14.95;5.63;;;;;;;;;;5003407;28;25115;-75
2023/08/01 04:08:07;;;;;;;18.83;5.72;;;;;;;;;;5000474;28;25060;-75
2023/08/01 04:10:33;;;;;;;19.38;6.32;;;;;;;;;;5012687;28;25055;-75
2023/08/01 04:12:59;;;;;;;14.00;6.15;;;;;;;;;;5003086;28;25166;-74
2023/08/01 04:15:25;;;;;;;16.58;5.72;;;;;;;;;;4986671;28;25103;-75
2023/08/01 04:17:51;;;;;;;13.90;5.78;;;;;;;;;;4997028;28;25050;-72
2023/08/01 04:20:17;;;;;;;15.68;5.95;;;;;;;;;;5006990;28;25077;-74
2023/08/01 04:22:43;;;;;;;16.13;6.13;;;;;;;;;;5023559;28;25094;-75
2023/08/01 04:25:09;;;;;;;21.27;6.68;;;;;;;;;;5012573;28;25127;-75
2023/08/01 04:27:35;;;;;;;14.45;5.32;;;;;;;;;;5018541;28;25067;-74
2023/08/01 04:30:01;;;;;;;14.70;5.05;;;;;;;;;;5003573;28;25111;-74
2023/08/01 04:32:27;;;;;;;13.52;5.18;;;;;;;;;;5004482;28;25081;-75
2023/08/01 04:34:53;;;;;;;15.38;5.43;;;;;;;;;;5011581;28;25062;-73
2023/08/01 04:37:23;;;;;;;21.55;6.22;;;;;;;;;;5011194;28;25096;-74
2023/08/01 04:39:49;;;;;;;20.58;6.45;;;;;;;;;;5015043;28;25155;-76
2023/08/01 04:42:15;;;;;;;11.15;4.93;;;;;;;;;;5035340;28;25104;-74
2023/08/01 04:44:41;;;;;;;18.58;6.22;;;;;;;;;;5026041;28;25065;-74
2023/08/01 04:47:07;;;;;;;22.67;5.88;;;;;;;;;;4999568;28;25163;-75
2023/08/01 04:49:33;;;;;;;19.80;5.72;;;;;;;;;;5023153;28;25088;-74
2023/08/01 04:52:00;;;;;;;13.02;5.00;;;;;;;;;;5021631;28;25071;-76
2023/08/01 04:54:26;;;;;;;15.50;5.20;;;;;;;;;;5020177;28;25062;-73
2023/08/01 04:56:52;;;;;;;15.95;5.25;;;;;;;;;;5013696;28;25050;-74
2023/08/01 04:59:18;;;;;;;21.13;6.00;;;;;;;;;;5024506;28;25133;-74
2023/08/01 05:01:44;;;;;;;14.07;4.57;;;;;;;;;;5011057;28;25096;-76
2023/08/01 05:04:10;;;;;;;16.00;4.97;;;;;;;;;;5001573;28;25066;-74
2023/08/01 05:06:36;;;;;;;16.52;5.00;;;;;;;;;;5004334;28;25092;-74
2023/08/01 05:09:02;;;;;;;17.42;5.38;;;;;;;;;;5003218;28;25040;-74
2023/08/01 05:11:28;;;;;;;14.52;4.88;;;;;;;;;;5001579;28;25103;-76
2023/08/01 05:13:54;;;;;;;14.82;4.80;;;;;;;;;;4998264;28;25047;-75
2023/08/01 05:16:20;;;;;;;17.67;5.55;;;;;;;;;;5006635;28;25090;-75
2023/08/01 05:18:46;;;;;;;15.82;5.00;;;;;;;;;;5025890;28;25072;-74
2023/08/01 05:21:12;;;;;;;21.00;5.00;;;;;;;;;;5016827;28;25085;-73
2023/08/01 05:23:38;;;;;;;20.08;5.07;;;;;;;;;;5018354;28;25100;-74
2023/08/01 05:26:04;;;;;;;17.70;5.13;;;;;;;;;;5006892;28;25051;-73
2023/08/01 05:28:30;;;;;;;13.23;4.03;;;;;;;;;;5014456;28;25096;-75
2023/08/01 05:30:56;;;;;;;10.02;4.28;;;;;;;;;;5003936;28;25134;-75
2023/08/01 05:33:22;;;;;;;12.75;4.28;;;;;;;;;;5000548;28;25093;-74
2023/08/01 05:35:49;;;;;;;17.35;4.68;;;;;;;;;;5006381;28;25046;-75
2023/08/01 05:38:15;;;;;;;12.73;4.80;;;;;;;;;;5007082;28;25073;-75
2023/08/01 05:40:41;;;;;;;18.20;4.85;;;;;;;;;;5013333;28;25132;-74
2023/08/01 05:43:08;;;;;;;12.05;4.50;;;;;;;;;;5001071;28;25063;-75
2023/08/01 05:45:35;;;;;;;12.65;4.78;;;;;;;;;;5005785;28;25090;-76
2023/08/01 05:48:02;;;;;;;16.17;4.55;;;;;;;;;;5013718;28;25086;-74
2023/08/01 05:50:28;;;;;;;12.48;4.30;;;;;;;;;;5015501;28;25163;-75
2023/08/01 05:52:54;;;;;;;14.25;4.03;;;;;;;;;;4993786;28;25071;-75
2023/08/01 05:55:21;;;;;;;18.77;3.85;;;;;;;;;;5008932;28;25166;-73
2023/08/01 05:57:48;;;;;;;18.40;4.50;;;;;;;;;;4998439;28;25199;-74
2023/08/01 06:00:15;;;;;;;8.93;3.47;;;;;;;;;;5000745;28;25106;-76
2023/08/01 06:02:41;;;;;;;10.38;3.50;;;;;;;;;;4995252;28;25065;-75
2023/08/01 06:05:07;;;;;;;10.52;3.50;;;;;;;;;;4998477;28;25108;-75
2023/08/01 06:07:33;;;;;;;13.10;3.53;;;;;;;;;;4999935;28;25070;-75
2023/08/01 06:09:59;;;;;;;12.68;3.30;;;;;;;;;;4995200;28;25153;-75
2023/08/01 06:12:25;;;;;;;14.00;3.53;;;;;;;;;;4996412;28;25056;-74
2023/08/01 06:14:51;;;;;;;8.20;3.25;;;;;;;;;;4998165;28;25095;-74
2023/08/01 06:17:17;;;;;;;11.38;3.30;;;;;;;;;;4992553;28;25111;-74
2023/08/01 06:19:43;;;;;;;12.98;4.30;;;;;;;;;;4994178;28;25096;-75
2023/08/01 06:22:09;;;;;;;16.08;4.10;;;;;;;;;;4983793;28;25074;-74
2023/08/01 06:24:35;;;;;;;16.42;4.05;;;;;;;;;;4993449;28;25053;-76
2023/08/01 06:27:01;;;;;;;11.95;3.58;;;;;;;;;;4987340;28;25099;-74
2023/08/01 06:29:27;;;;;;;11.10;4.63;;;;;;;;;;4997850;28;25074;-74
2023/08/01 06:31:53;;;;;;;8.23;3.22;;;;;;;;;;5011212;28;25074;-75
2023/08/01 06:34:19;;;;;;;14.10;4.68;;;;;;;;;;4999141;28;25132;-75
2023/08/01 06:36:45;;;;;;;9.52;3.72;;;;;;;;;;4986324;28;25077;-74
2023/08/01 06:39:11;;;;;;;9.15;2.80;;;;;;;;;;4995893;28;25051;-76
2023/08/01 06:41:37;;;;;;;9.75;3.50;;;;;;;;;;5003214;28;25066;-74
2023/08/01 06:44:03;;;;;;;11.13;3.83;;;;;;;;;;4988336;28;25092;-74
2023/08/01 06:46:29;;;;;;;11.45;3.17;;;;;;;;;;4991434;28;25074;-73
2023/08/01 06:48:55;;;;;;;16.13;3.85;;;;;;;;;;4997641;28;25066;-74
2023/08/01 06:51:21;;;;;;;8.43;3.13;;;;;;;;;;5001310;28;25063;-74
2023/08/01 06:53:47;;;;;;;10.32;3.28;;;;;;;;;;4997233;28;25063;-74
2023/08/01 06:56:13;;;;;;;10.57;3.22;;;;;;;;;;4999355;28;25049;-75
2023/08/01 06:58:39;;;;;;;11.38;3.90;;;;;;;;;;4997960;28;25059;-73
2023/08/01 07:01:05;;;;;;;8.38;3.20;;;;;;;;;;5005745;28;25094;-73
2023/08/01 07:03:31;;;;;;;10.77;3.25;;;;;;;;;;5002306;28;25077;-76
2023/08/01 07:05:57;;;;;;;13.25;2.95;;;;;;;;;;4985388;28;25116;-73
2023/08/01 07:08:23;;;;;;;17.77;4.22;;;;;;;;;;4998696;28;25083;-73
2023/08/01 07:10:49;;;;;;;11.60;3.35;;;;;;;;;;4986610;28;25057;-74
2023/08/01 07:13:16;;;;;;;9.43;3.60;;;;;;;;;;5004919;28;25143;-74
2023/08/01 07:15:42;;;;;;;11.82;3.05;;;;;;;;;;5012736;28;25073;-75
2023/08/01 07:18:08;;;;;;;16.92;4.55;;;;;;;;;;5001691;28;25086;-73
2023/08/01 07:20:34;;;;;;;9.05;3.20;;;;;;;;;;5009893;28;25146;-74
2023/08/01 07:23:00;;;;;;;11.07;3.03;;;;;;;;;;4992729;28;25065;-74
2023/08/01 07:25:26;;;;;;;17.25;4.97;;;;;;;;;;4994132;28;25142;-74
2023/08/01 07:27:52;;;;;;;10.75;4.20;;;;;;;;;;4998790;28;25064;-74
2023/08/01 07:30:18;;;;;;;12.88;4.00;;;;;;;;;;4999060;28;25128;-73
2023/08/01 07:32:44;;;;;;;9.35;3.63;;;;;;;;;;4978883;28;25065;-72
2023/08/01 07:35:10;;;;;;;17.70;4.20;;;;;;;;;;4988617;28;25083;-74
2023/08/01 07:37:37;;;;;;;12.48;3.35;;;;;;;;;;4983125;28;25073;-74
2023/08/01 07:40:04;;;;;;;7.88;3.33;;;;;;;;;;4991886;28;25075;-74
2023/08/01 07:42:30;;;;;;;9.75;2.78;;;;;;;;;;4995666;28;25068;-73
2023/08/01 07:44:56;;;;;;;7.40;3.15;;;;;;;;;;4984696;28;25047;-75
2023/08/01 07:47:23;;;;;;;10.55;3.40;;;;;;;;;;5006519;28;25069;-76
2023/08/01 07:49:50;;;;;;;7.55;2.78;;;;;;;;;;4992837;28;25093;-74
2023/08/01 07:52:16;;;;;;;12.52;3.03;;;;;;;;;;4993684;28;25121;-74
2023/08/01 07:54:42;;;;;;;9.35;3.53;;;;;;;;;;4997588;28;25101;-73
2023/08/01 07:57:08;;;;;;;10.35;3.63;;;;;;;;;;4996435;28;25088;-73
2023/08/01 07:59:34;;;;;;;8.15;3.10;;;;;;;;;;5017853;28;25121;-72
2023/08/01 08:01:59;;;;;;;9.95;2.60;;;;;;;;;;4996221;28;25065;-75
2023/08/01 08:04:26;;;;;;;10.30;3.13;;;;;;;;;;5001170;28;25097;-73
2023/08/01 08:06:52;;;;;;;8.95;2.50;;;;;;;;;;5003845;28;25086;-72
2023/08/01 08:09:18;;;;;;;7.55;2.53;;;;;;;;;;4996803;28;25104;-75
2023/08/01 08:11:44;;;;;;;10.70;3.50;;;;;;;;;;4994441;28;25069;-74
2023/08/01 08:14:11;;;;;;;7.88;2.97;;;;;;;;;;4992982;28;25067;-74
2023/08/01 08:16:37;;;;;;;9.45;2.97;;;;;;;;;;4991235;28;25057;-74
2023/08/01 08:19:03;;;;;;;13.88;3.53;;;;;;;;;;4997264;28;25057;-75
2023/08/01 08:21:29;;;;;;;7.90;2.97;;;;;;;;;;5004015;28;25066;-73
2023/08/01 08:23:55;;;;;;;9.77;3.10;;;;;;;;;;4997659;28;25069;-73
2023/08/01 08:26:21;;;;;;;10.95;3.00;;;;;;;;;;4999257;28;25053;-75
2023/08/01 08:28:47;;;;;;;10.93;2.97;;;;;;;;;;4993579;28;25068;-74
2023/08/01 08:31:13;;;;;;;10.82;3.00;;;;;;;;;;5001807;28;25166;-73
2023/08/01 08:33:39;;;;;;;12.98;3.15;;;;;;;;;;4999908;28;25073;-75
2023/08/01 08:36:05;;;;;;;8.45;2.40;;;;;;;;;;4984827;28;25078;-75
2023/08/01 08:38:31;;;;;;;12.20;3.20;;;;;;;;;;5007489;28;25262;-74
2023/08/01 08:41:11;;;;;;;10.95;3.20;;;;;;;;;;5010038;28;25073;-74
2023/08/01 08:43:37;;;;;;;11.80;2.67;;;;;;;;;;4992735;28;25081;-73
2023/08/01 08:46:04;;;;;;;12.20;3.30;;;;;;;;;;4997986;28;25157;-73
2023/08/01 08:48:30;;;;;;;16.65;2.80;;;;;;;;;;4999263;28;25076;-71
2023/08/01 08:51:00;;;;;;;11.68;3.03;;;;;;;;;;5000157;28;25104;-74
2023/08/01 08:53:26;;;;;;;9.55;2.53;;;;;;;;;;4995619;28;25096;-74
2023/08/01 08:55:52;;;;;;;8.85;2.67;;;;;;;;;;4999009;28;25064;-74
2023/08/01 08:58:19;;;;;;;8.00;2.97;;;;;;;;;;4989117;28;25144;-75
2023/08/01 09:00:45;;;;;;;7.65;2.90;;;;;;;;;;4993308;28;25057;-74
2023/08/01 09:03:11;;;;;;;13.88;3.10;;;;;;;;;;4991207;28;25079;-75
2023/08/01 09:05:40;;;;;;;10.15;2.92;;;;;;;;;;4993714;28;25092;-75
2023/08/01 09:08:10;;;;;;;9.23;3.05;;;;;;;;;;4985156;28;25091;-74
2023/08/01 09:10:36;;;;;;;9.70;2.45;;;;;;;;;;4993063;28;25064;-74
2023/08/01 09:13:02;;;;;;;8.05;2.88;;;;;;;;;;4992487;28;25057;-74
2023/08/01 09:15:28;;;;;;;11.70;2.72;;;;;;;;;;4989437;28;25177;-74
2023/08/01 09:18:00;;;;;;;15.45;3.22;;;;;;;;;;4991603;28;25087;-74
2023/08/01 09:20:29;;;;;;;12.77;2.97;;;;;;;;;;4995810;28;25064;-75
2023/08/01 09:22:55;;;;;;;13.35;3.55;;;;;;;;;;4996951;28;25043;-73
2023/08/01 09:25:30;;;;;;;9.68;3.03;;;;;;;;;;4999486;28;25167;-74
2023/08/01 09:27:56;;;;;;;14.82;3.33;;;;;;;;;;5001840;28;25159;-75
2023/08/01 09:30:22;;;;;;;7.47;2.85;;;;;;;;;;5007772;28;25075;-74
2023/08/01 09:32:52;;;;;;;5.90;2.30;;;;;;;;;;5009106;28;25067;-73
2023/08/01 09:35:18;;;;;;;9.77;3.03;;;;;;;;;;4995265;28;25088;-74
2023/08/01 09:37:44;;;;;;;11.88;3.35;;;;;;;;;;4999044;28;25096;-73
2023/08/01 09:40:11;;;;;;;12.63;3.05;;;;;;;;;;5004333;28;25063;-75
2023/08/01 09:42:46;;;;;;;8.18;2.38;;;;;;;;;;5009591;28;25069;-72
2023/08/01 09:45:14;;;;;;;11.82;2.78;;;;;;;;;;5004922;28;25111;-75
2023/08/01 09:47:40;;;;;;;12.18;2.83;;;;;;;;;;4996679;28;25050;-73
2023/08/01 09:50:06;;;;;;;7.70;3.08;;;;;;;;;;5001082;28;25097;-73
2023/08/01 09:52:34;;;;;;;17.63;2.95;;;;;;;;;;4999322;28;25099;-73
2023/08/01 09:55:00;;;;;;;8.80;2.75;;;;;;;;;;5006160;28;25140;-73
2023/08/01 09:57:27;;;;;;;5.68;2.40;;;;;;;;;;4995188;28;25113;-74
2023/08/01 09:59:54;;;;;;;8.73;2.45;;;;;;;;;;4999741;28;25167;-75
2023/08/01 10:02:22;;;;;;;5.55;2.13;;;;;;;;;;4992529;28;25076;-75
2023/08/01 10:04:48;;;;;;;7.72;2.55;;;;;;;;;;5005823;28;25071;-73
2023/08/01 10:07:14;;;;;;;14.18;2.58;;;;;;;;;;5002415;28;25080;-75
2023/08/01 10:09:41;;;;;;;7.93;2.17;;;;;;;;;;4997428;28;25109;-74
2023/08/01 10:12:08;;;;;;;11.05;2.65;;;;;;;;;;5004119;28;25068;-74
2023/08/01 10:14:34;;;;;;;6.85;1.90;;;;;;;;;;5002352;28;25073;-74
2023/08/01 10:17:02;;;;;;;6.18;2.17;;;;;;;;;;4997618;28;25110;-74
2023/08/01 10:19:28;;;;;;;9.13;2.10;;;;;;;;;;4987369;28;25065;-73
2023/08/01 10:21:55;;;;;;;6.50;2.10;;;;;;;;;;4998738;28;25063;-75
2023/08/01 10:24:21;;;;;;;6.50;1.80;;;;;;;;;;4999269;28;25079;-72
2023/08/01 10:26:47;;;;;;;10.32;2.28;;;;;;;;;;5002881;28;25149;-73
2023/08/01 10:29:13;;;;;;;5.10;1.95;;;;;;;;;;5011866;28;25090;-74
2023/08/01 10:31:39;;;;;;;5.55;2.08;;;;;;;;;;4999529;28;25062;-75
2023/08/01 10:34:06;;;;;;;6.40;2.05;;;;;;;;;;4992913;28;25062;-75
2023/08/01 10:36:33;;;;;;;13.48;2.65;;;;;;;;;;4989304;28;25109;-74
2023/08/01 10:39:00;;;;;;;10.18;2.28;;;;;;;;;;4997918;28;25065;-74
2023/08/01 10:41:30;;;;;;;7.97;2.25;;;;;;;;;;5017519;28;25068;-74
2023/08/01 10:44:09;;;;;;;10.95;2.40;;;;;;;;;;5004370;28;25158;-74
2023/08/01 10:46:48;;;;;;;6.15;2.10;;;;;;;;;;5005894;28;25070;-73
2023/08/01 10:49:14;;;;;;;7.82;2.08;;;;;;;;;;5001674;28;25096;-73
2023/08/01 10:51:40;;;;;;;9.02;2.42;;;;;;;;;;4998635;28;25063;-74
2023/08/01 10:54:06;;;;;;;8.30;2.30;;;;;;;;;;5003881;28;25054;-74
2023/08/01 10:56:32;;;;;;;9.10;2.10;;;;;;;;;;5019513;28;25090;-74
2023/08/01 10:58:59;;;;;;;10.27;2.17;;;;;;;;;;5013522;28;25137;-73
2023/08/01 11:01:28;;;;;;;8.93;2.13;;;;;;;;;;5010914;28;25058;-74
2023/08/01 11:03:53;;;;;;;7.60;2.20;;;;;;;;;;5002586;28;25056;-72
2023/08/01 11:06:19;;;;;;;7.35;2.05;;;;;;;;;;5000716;28;25129;-73
2023/08/01 11:08:45;;;;;;;6.55;1.63;;;;;;;;;;4995138;28;25050;-73
2023/08/01 11:11:13;;;;;;;11.48;2.63;;;;;;;;;;4999005;28;25113;-74
2023/08/01 11:13:39;;;;;;;6.05;1.50;;;;;;;;;;4999943;28;25073;-74
2023/08/01 11:16:06;;;;;;;7.70;2.20;;;;;;;;;;4994862;28;25073;-75
2023/08/01 11:18:44;;;;;;;5.75;1.67;;;;;;;;;;4993224;28;25077;-74
2023/08/01 11:21:10;;;;;;;9.40;2.20;;;;;;;;;;4988466;28;25104;-74
2023/08/01 11:23:36;;;;;;;9.40;1.98;;;;;;;;;;4993871;28;25047;-75
2023/08/01 11:26:08;;;;;;;8.85;2.33;;;;;;;;;;5000306;28;25052;-74
2023/08/01 11:28:34;;;;;;;5.30;2.40;;;;;;;;;;5003584;28;25109;-74
2023/08/01 11:31:00;;;;;;;7.07;2.25;;;;;;;;;;4999269;28;25109;-74
2023/08/01 11:33:26;;;;;;;5.57;1.98;;;;;;;;;;5018409;28;25189;-73
2023/08/01 11:35:53;;;;;;;6.93;1.90;;;;;;;;;;5003850;28;25112;-75
2023/08/01 11:38:20;;;;;;;7.00;2.13;;;;;;;;;;5000025;28;25093;-74
2023/08/01 11:40:49;;;;;;;9.23;2.42;;;;;;;;;;5005522;28;25150;-72
2023/08/01 11:43:15;;;;;;;10.00;1.92;;;;;;;;;;5009179;28;25074;-73
2023/08/01 11:45:48;;;;;;;6.93;1.95;;;;;;;;;;5009686;28;25054;-71
2023/08/01 11:48:14;;;;;;;6.03;1.90;;;;;;;;;;5005067;28;25081;-72
2023/08/01 11:50:40;;;;;;;6.13;2.42;;;;;;;;;;4994967;28;25056;-74
2023/08/01 11:53:06;;;;;;;7.22;2.75;;;;;;;;;;5001484;28;25096;-71
2023/08/01 11:55:36;;;;;;;6.75;2.15;;;;;;;;;;5005123;28;25073;-72
2023/08/01 11:58:04;;;;;;;8.02;1.98;;;;;;;;;;5004248;28;25114;-74
2023/08/01 12:00:30;;;;;;;9.75;2.30;;;;;;;;;;5000707;28;25059;-73
2023/08/01 12:03:06;;;;;;;4.88;1.50;;;;;;;;;;4999393;28;25051;-71
2023/08/01 12:05:32;;;;;;;6.55;1.67;;;;;;;;;;5005511;28;25082;-75
2023/08/01 12:08:08;;;;;;;15.02;2.80;;;;;;;;;;4995612;28;25073;-73
2023/08/01 12:10:45;;;;;;;10.80;2.10;;;;;;;;;;5010709;28;25158;-74
2023/08/01 12:13:21;;;;;;;10.75;2.55;;;;;;;;;;5007463;28;25071;-74
2023/08/01 12:15:48;;;;;;;7.00;2.25;;;;;;;;;;5000525;28;25099;-73
2023/08/01 12:18:34;;;;;;;6.57;2.17;;;;;;;;;;5001207;28;25060;-73
2023/08/01 12:21:00;;;;;;;6.07;2.05;;;;;;;;;;4989243;28;25066;-72
2023/08/01 12:23:26;;;;;;;6.15;1.55;;;;;;;;;;5002283;28;25054;-73
2023/08/01 12:25:52;;;;;;;5.03;1.98;;;;;;;;;;4999701;28;25110;-75
2023/08/01 12:28:18;;;;;;;9.88;2.00;;;;;;;;;;4997836;28;25073;-73
2023/08/01 12:30:44;;;;;;;5.15;1.45;;;;;;;;;;5010124;28;25057;-73
2023/08/01 12:33:10;;;;;;;2.78;1.30;;;;;;;;;;5007443;28;25102;-73
2023/08/01 12:35:40;;;;;;;5.60;1.30;;;;;;;;;;4991071;28;25100;-74
2023/08/01 12:38:06;;;;;;;2.97;1.48;;;;;;;;;;4998431;28;25050;-73
2023/08/01 12:40:32;;;;;;;3.97;1.27;;;;;;;;;;5015806;28;25083;-73
2023/08/01 12:42:58;;;;;;;3.80;1.60;;;;;;;;;;4997295;28;25063;-71
2023/08/01 12:45:25;;;;;;;6.80;1.60;;;;;;;;;;5006000;28;25079;-72
2023/08/01 12:47:51;;;;;;;4.72;1.55;;;;;;;;;;5004451;28;25066;-73
2023/08/01 12:50:17;;;;;;;8.77;2.30;;;;;;;;;;5008985;28;25066;-74
2023/08/01 12:52:43;;;;;;;6.43;1.90;;;;;;;;;;5003074;28;25147;-73
2023/08/01 12:55:09;;;;;;;9.00;2.10;;;;;;;;;;5017405;28;25076;-72
2023/08/01 12:57:35;;;;;;;9.65;2.33;;;;;;;;;;5012413;28;25079;-73
2023/08/01 13:00:01;;;;;;;3.75;1.80;;;;;;;;;;5005327;28;25061;-72
2023/08/01 13:02:27;;;;;;;7.10;2.08;;;;;;;;;;5007665;28;25085;-72
2023/08/01 13:04:53;;;;;;;6.97;2.15;;;;;;;;;;4996165;28;25090;-72
2023/08/01 13:07:19;;;;;;;8.00;1.90;;;;;;;;;;5008893;28;25088;-70
2023/08/01 13:09:45;;;;;;;9.00;1.92;;;;;;;;;;5000804;28;25146;-73
2023/08/01 13:12:11;;;;;;;7.72;1.90;;;;;;;;;;5004168;28;25071;-73
2023/08/01 13:14:37;;;;;;;8.95;2.00;;;;;;;;;;4997085;28;25067;-72
2023/08/01 13:17:03;;;;;;;9.32;2.40;;;;;;;;;;5000189;28;25076;-71
2023/08/01 13:19:30;;;;;;;4.93;2.13;;;;;;;;;;4991883;28;25073;-74
2023/08/01 13:21:56;;;;;;;6.93;1.95;;;;;;;;;;5005811;28;25058;-71
2023/08/01 13:24:22;;;;;;;8.15;1.75;;;;;;;;;;4996677;28;25097;-72
2023/08/01 13:26:48;;;;;;;10.05;1.98;;;;;;;;;;4997086;28;25071;-72
2023/08/01 13:29:14;;;;;;;6.70;1.80;;;;;;;;;;4995370;28;25053;-72
2023/08/01 13:31:42;;;;;;;7.47;1.95;;;;;;;;;;5015729;28;25132;-73
2023/08/01 13:34:08;;;;;;;4.00;1.65;;;;;;;;;;5020604;28;25147;-73
2023/08/01 13:36:34;;;;;;;8.63;1.90;;;;;;;;;;5007255;28;25094;-73
2023/08/01 13:39:00;;;;;;;6.70;2.03;;;;;;;;;;5002977;28;25092;-73
2023/08/01 13:41:26;;;;;;;9.95;2.00;;;;;;;;;;4998454;28;25074;-70
2023/08/01 13:43:52;;;;;;;7.03;1.52;;;;;;;;;;4994289;28;25073;-72
2023/08/01 13:46:22;;;;;;;5.22;1.70;;;;;;;;;;4996864;28;25055;-71
2023/08/01 13:48:48;;;;;;;7.10;1.88;;;;;;;;;;4993178;28;25059;-72
2023/08/01 13:51:14;;;;;;;6.22;2.00;;;;;;;;;;4998289;28;25063;-73
2023/08/01 13:53:43;;;;;;;3.55;1.75;;;;;;;;;;4998134;28;25077;-72
2023/08/01 13:56:10;;;;;;;5.35;1.52;;;;;;;;;;5003569;28;25072;-71
2023/08/01 13:58:36;;;;;;;6.43;1.67;;;;;;;;;;5016295;28;25065;-74
2023/08/01 14:01:03;;;;;;;8.10;2.10;;;;;;;;;;5012098;28;25067;-73
2023/08/01 14:03:29;;;;;;;4.30;1.60;;;;;;;;;;5011752;28;25058;-74
2023/08/01 14:05:55;;;;;;;7.15;1.55;;;;;;;;;;5006929;28;25096;-73
2023/08/01 14:08:21;;;;;;;6.03;1.30;;;;;;;;;;4997470;28;25070;-73
2023/08/01 14:10:47;;;;;;;5.85;1.30;;;;;;;;;;4996264;28;25059;-73
2023/08/01 14:13:13;;;;;;;7.40;1.40;;;;;;;;;;4995746;28;25143;-75
2023/08/01 14:15:39;;;;;;;6.18;1.90;;;;;;;;;;4991192;28;25090;-73
2023/08/01 14:18:05;;;;;;;6.35;1.48;;;;;;;;;;4992993;28;25069;-73
2023/08/01 14:20:31;;;;;;;4.13;1.45;;;;;;;;;;4993719;28;25075;-72
2023/08/01 14:22:57;;;;;;;8.48;1.85;;;;;;;;;;4993995;28;25127;-73
2023/08/01 14:25:23;;;;;;;7.57;1.55;;;;;;;;;;5006971;28;25078;-72
2023/08/01 14:27:49;;;;;;;4.57;1.90;;;;;;;;;;4998033;28;25098;-72
2023/08/01 14:30:15;;;;;;;6.50;1.90;;;;;;;;;;5000705;28;25066;-74
2023/08/01 14:32:41;;;;;;;3.35;1.45;;;;;;;;;;4987124;28;25070;-74